AirNav   Bose Proflight Series 2 Wireless Aviation Headset
 
 1127 users online  

0MU6 Bradbury-Rolf Memorial Heliport
Higginsville, Missouri, USA

GOING TO HIGGINSVILLE?


FAA INFORMATION EFFECTIVE 07 NOVEMBER 2019

Location

FAA Identifier: 0MU6
Lat/Long: 39-04-25.4400N 093-44-09.2200W
39-04.424000N 093-44.153667W
39.0737333,-93.7358944
(estimated)
Elevation: 815 ft. / 248 m (estimated)
Variation: 04E (1995)
Time zone: UTC -6 (UTC -5 during Daylight Saving Time)
Zip code: 64037

Heliport Operations

Heliport use: Private use, MEDICAL
Activation date: 09/1996
Control tower: no
ARTCC: KANSAS CITY CENTER
FSS: COLUMBIA FLIGHT SERVICE STATION
Attendance: UNATNDD
Wind indicator: yes
Segmented circle: no
Lights: FOR FLOOD LGTS CALL 660-584-3832.

Heliport Communications

WX AWOS-3 at RCM (18 nm S): 119.575 (660-422-7010)

Nearby radio navigation aids

VOR radial/distance  VOR name  Freq  Var
ANXr087/18.3NAPOLEON VORTAC114.0007E
BQSr166/34.0BRAYMER VOR/DME111.2003E

 
NDB name  Hdg/Dist  Freq  Var  ID
SEDALIA307/34.328103EDMO -.. -- ---

Heliport Services

Runway Information

Helipad H1

Dimensions: 60 x 60 ft. / 18 x 18 m
Surface: concrete
Runway edge lights: FLD
Runway edge markings: MARKED WITH LETTER H.
Latitude: 39-04.424000N
Longitude: 093-44.153667W
Elevation: 815.0 ft.
Traffic pattern: leftleft

Heliport Ownership and Management from official FAA records

Ownership: Privately-owned
Owner: FAMILY PRACTICE ASSOC
1200 W 22ND
HIGGINSVILLE, MO 64037
Phone (660) 584-7751
Manager: ROD KIRCHHOFF
850 WILLOW CREEK LN
HIGGINSVILLE, MO 64037
Phone (816) 565-3685

Additional Remarks

A52-H1 30-40 FT PLINES MKD E & S OF HELIPAD.
FOR CD CTC WHITEMAN APCH AT 660-687-3132. WHEN WHITEMAN APCH IS CLSD, CTC KANSAS CITY ARTCC AT 913-254-8508.

Instrument Procedures

There are no published instrument procedures at 0MU6.

Some nearby airports with instrument procedures:

KHIG - Higginsville Industrial Municipal Airport (3 nm E)
KRCM - Skyhaven Airport (18 nm S)
KSZL - Whiteman Air Force Base (22 nm SE)
3GV - East Kansas City Airport (23 nm W)
KMHL - Marshall Memorial Municipal Airport (25 nm E)
 
Loc | Ops | Rwys | IFR | FBO | Links
Com | Nav | Svcs | Stats | Notes

Kansas City Aviation Department
 
Area around 0MU6 (Bradbury-Rolf Memorial Heliport)
 
Road maps at: MapQuest Bing Google
 
Aerial photo
No photo
 
Sectional chart

 
Airport distance calculator
Flying to Bradbury-Rolf Memorial Heliport? Find the distance to fly.

From to 0MU6

Sunrise and sunset
Times for 21-Nov-2019
 Local
(UTC-6)
 Zulu
(UTC)
Morning civil twilight06:3712:37
Sunrise07:0613:06
Sunset16:5622:56
Evening civil twilight17:2523:25

Current date and time
Zulu (UTC)  21-Nov-2019 23:45:38
Local (UTC-6)  21-Nov-2019 17:45:38
 
METAR
KRCM 
18nm S 
212335Z AUTO 33008KT 10SM 05/01 A3010 RMK AO2
KSZL 
23nm SE 
212256Z 33009KT 10SM OVC019 06/04 A3007 RMK AO2A PRESRR SLP187 T00600040 $
KMHL 
25nm E 
212335Z AUTO 29010KT 10SM OVC019 05/02 A3011 RMK AO2 TSNO PWINO
KLXT 
30nm W 
212253Z AUTO 36009KT 10SM OVC018 06/01 A3012 RMK AO2 PRESRR SLP201 T00560006
KGPH 
31nm NW 
212335Z AUTO 35010KT 10SM OVC019 05/00 A3012 RMK AO2
KDMO 
34nm SE 
212253Z AUTO 33009KT 10SM OVC017 07/03 A3010 RMK AO2 PRESRR SLP193 T00670033
TAF
KSZL 
23nm SE 
211900Z 2119/2301 32012KT 9999 BKN015 OVC030 QNH2994INS BECMG 2204/2205 01009KT 9999 BKN030 OVC080 620809 QNH3002INS TX08/2119Z TN01/2211Z
NOTAMs
Click for the latest NOTAMs
NOTAMs are issued by the DoD/FAA and will open in a separate window not controlled by AirNav.

 

 
 

Would you like to see your business listed on this page?

 If your business provides an interesting product or service to pilots, flight crews, aircraft, or users of the Bradbury-Rolf Memorial Heliport, you should consider listing it here.  To start the listing process, click on the button below
 
Add a business
 

Other Pages about Bradbury-Rolf Memorial Heliport

Update a link
 
Copyright © AirNav, LLC. All rights reserved. Privacy Policy  Contact